createdAt,value
2023-03-03T00:01:07.193Z,-0.50
2023-03-03T00:03:35.584Z,-0.50
2023-03-03T00:06:05.216Z,-0.50
2023-03-03T00:08:34.706Z,-0.50
2023-03-03T00:11:05.069Z,-0.50
2023-03-03T00:13:33.995Z,-0.50
2023-03-03T00:16:15.340Z,-0.60
2023-03-03T00:18:45.953Z,-0.60
2023-03-03T00:21:26.086Z,-0.70
2023-03-03T00:23:56.436Z,-0.70
2023-03-03T00:26:28.117Z,-0.70
2023-03-03T00:28:57.023Z,-0.70
2023-03-03T00:31:31.922Z,-0.90
2023-03-03T00:34:06.234Z,-0.90
2023-03-03T00:36:39.028Z,-1.00
2023-03-03T00:39:27.890Z,-0.80
2023-03-03T00:41:56.381Z,-0.80
2023-03-03T00:44:43.151Z,-0.80
2023-03-03T00:47:31.786Z,-0.80
2023-03-03T00:50:29.469Z,-0.90
2023-03-03T00:53:11.895Z,-0.90
2023-03-03T00:55:41.754Z,-1.00
2023-03-03T00:58:09.885Z,-1.10
2023-03-03T01:00:43.608Z,-1.10
2023-03-03T01:03:16.535Z,-1.10
2023-03-03T01:05:45.098Z,-1.10
2023-03-03T01:08:13.552Z,-1.00
2023-03-03T01:10:47.161Z,-1.00
2023-03-03T01:13:15.528Z,-1.00
2023-03-03T01:15:44.112Z,-1.00
2023-03-03T01:18:15.565Z,-0.90
2023-03-03T01:20:43.819Z,-0.90
2023-03-03T01:23:12.510Z,-0.90
2023-03-03T01:25:41.012Z,-0.90
2023-03-03T01:28:10.616Z,-1.00
2023-03-03T01:30:38.785Z,-1.00
2023-03-03T01:33:07.173Z,-1.00
2023-03-03T01:35:37.367Z,-1.10
2023-03-03T01:38:05.470Z,-1.00
2023-03-03T01:40:33.995Z,-1.00
2023-03-03T01:43:04.804Z,-1.00
2023-03-03T01:45:46.026Z,-1.00
2023-03-03T01:48:19.133Z,-1.00
2023-03-03T01:50:52.991Z,-1.00
2023-03-03T01:53:24.630Z,-1.10
2023-03-03T01:55:54.275Z,-1.10
2023-03-03T01:58:26.912Z,-1.10
2023-03-03T02:01:01.553Z,-1.10
2023-03-03T02:03:30.857Z,-1.30
2023-03-03T02:06:03.234Z,-1.40
2023-03-03T02:08:38.870Z,-1.60
2023-03-03T02:11:07.731Z,-1.50
2023-03-03T02:13:35.967Z,-1.60
2023-03-03T02:16:06.005Z,-1.60
2023-03-03T02:18:34.187Z,-1.50
2023-03-03T02:21:11.065Z,-1.50
2023-03-03T02:23:43.264Z,-1.50
2023-03-03T02:26:14.166Z,-1.40
2023-03-03T02:28:43.259Z,-1.40
2023-03-03T02:31:17.433Z,-1.80
2023-03-03T02:33:47.760Z,-1.50
2023-03-03T02:36:17.594Z,-1.50
2023-03-03T02:38:51.139Z,-1.50
2023-03-03T02:41:32.386Z,-1.60
2023-03-03T02:44:04.675Z,-1.60
2023-03-03T02:46:36.405Z,-1.60
2023-03-03T02:49:05.463Z,-1.60
2023-03-03T02:51:33.936Z,-1.60
2023-03-03T02:54:02.386Z,-1.70
2023-03-03T02:56:34.723Z,-1.70
2023-03-03T02:59:03.221Z,-1.60
2023-03-03T03:01:37.139Z,-1.50
2023-03-03T03:04:10.114Z,-1.30
2023-03-03T03:06:40.177Z,-1.30
2023-03-03T03:09:10.307Z,-1.20
2023-03-03T03:11:40.167Z,-1.10
2023-03-03T03:14:10.484Z,-1.00
2023-03-03T03:16:39.391Z,-0.90
2023-03-03T03:19:07.952Z,-0.90
2023-03-03T03:21:37.562Z,-0.90
2023-03-03T03:24:07.720Z,-0.90
2023-03-03T03:26:39.087Z,-0.80
2023-03-03T03:29:07.699Z,-0.80
2023-03-03T03:31:36.058Z,-0.80
2023-03-03T03:34:05.080Z,-0.80
2023-03-03T03:36:35.661Z,-0.70
2023-03-03T03:39:06.317Z,-0.70
2023-03-03T03:41:36.907Z,-0.60
2023-03-03T03:44:06.680Z,-0.60
2023-03-03T03:46:35.492Z,-0.60
2023-03-03T03:49:03.832Z,-0.60
2023-03-03T03:51:34.002Z,-0.50
2023-03-03T03:54:02.067Z,-0.50
2023-03-03T03:56:30.375Z,-0.50
2023-03-03T03:59:01.032Z,-0.40
2023-03-03T04:01:30.887Z,-0.50
2023-03-03T04:03:59.657Z,-0.40
2023-03-03T04:06:27.796Z,-0.40
2023-03-03T04:08:56.859Z,-0.40
2023-03-03T04:11:26.813Z,-0.30
2023-03-03T04:13:55.041Z,-0.30
2023-03-03T04:16:23.901Z,-0.30
2023-03-03T04:18:53.883Z,-0.20
2023-03-03T04:21:23.095Z,-0.20
2023-03-03T04:23:53.704Z,-0.20
2023-03-03T04:26:21.991Z,-0.10
2023-03-03T04:28:50.660Z,0.00
2023-03-03T04:31:20.549Z,-0.10
2023-03-03T04:33:49.643Z,-0.10
2023-03-03T04:36:19.996Z,-0.10
2023-03-03T04:38:49.627Z,-0.10
2023-03-03T04:41:17.952Z,-0.10
2023-03-03T04:43:46.867Z,0.00
2023-03-03T04:46:15.405Z,0.10
2023-03-03T04:48:44.123Z,0.10
2023-03-03T04:51:12.685Z,0.10
2023-03-03T04:53:42.093Z,0.00
2023-03-03T04:56:11.348Z,0.10
2023-03-03T04:58:39.612Z,0.10
2023-03-03T05:01:08.250Z,0.10
2023-03-03T05:03:36.383Z,0.20
2023-03-03T05:06:04.568Z,0.10
2023-03-03T05:08:34.501Z,0.10
2023-03-03T05:11:05.010Z,0.10
2023-03-03T05:13:33.113Z,0.20
2023-03-03T05:16:01.506Z,0.20
2023-03-03T05:18:30.156Z,0.20
2023-03-03T05:20:58.312Z,0.20
2023-03-03T05:23:26.742Z,0.30
2023-03-03T05:25:54.777Z,0.30
2023-03-03T05:28:24.412Z,0.30
2023-03-03T05:30:52.660Z,0.20
2023-03-03T05:33:20.836Z,0.20
2023-03-03T05:35:49.012Z,0.20
2023-03-03T05:38:17.382Z,0.30
2023-03-03T05:40:45.495Z,0.30
2023-03-03T05:43:13.844Z,0.40
2023-03-03T05:45:43.420Z,0.40
2023-03-03T05:48:12.032Z,0.40
2023-03-03T05:50:40.259Z,0.40
2023-03-03T05:53:08.422Z,0.50
2023-03-03T05:55:36.783Z,0.40
2023-03-03T05:58:05.084Z,0.50
2023-03-03T06:00:33.266Z,2.70
2023-03-03T06:03:02.779Z,3.90
2023-03-03T06:05:31.053Z,4.00
2023-03-03T06:07:59.804Z,3.50
2023-03-03T06:10:28.095Z,5.40
2023-03-03T06:12:59.570Z,6.30
2023-03-03T06:15:27.838Z,5.60
2023-03-03T06:17:56.082Z,4.30
2023-03-03T06:20:25.718Z,5.10
2023-03-03T06:22:54.239Z,5.10
2023-03-03T06:25:22.404Z,5.70
2023-03-03T06:27:50.609Z,6.10
2023-03-03T06:30:19.641Z,3.90
2023-03-03T06:32:47.971Z,4.20
2023-03-03T06:35:16.916Z,3.30
2023-03-03T06:37:46.999Z,2.40
2023-03-03T06:40:15.611Z,3.00
2023-03-03T06:42:43.750Z,3.80
2023-03-03T06:45:12.766Z,3.50
2023-03-03T06:47:40.992Z,3.80
2023-03-03T06:50:11.106Z,3.80
2023-03-03T06:52:39.523Z,4.50
2023-03-03T06:55:17.757Z,4.70
2023-03-03T06:57:45.904Z,5.20
2023-03-03T07:00:20.276Z,3.50
2023-03-03T07:02:48.904Z,3.00
2023-03-03T07:05:19.384Z,3.30
2023-03-03T07:07:47.629Z,2.00
2023-03-03T07:10:24.372Z,1.60
2023-03-03T07:12:52.794Z,1.70
2023-03-03T07:15:24.417Z,2.00
2023-03-03T07:17:58.178Z,2.10
2023-03-03T07:20:33.295Z,2.90
2023-03-03T07:23:01.926Z,3.50
2023-03-03T07:25:35.407Z,2.70
2023-03-03T07:28:26.144Z,2.30
2023-03-03T07:30:55.751Z,2.00
2023-03-03T07:33:28.098Z,1.80
2023-03-03T07:35:57.458Z,2.10
2023-03-03T07:38:31.661Z,2.30
2023-03-03T07:41:04.329Z,2.20
2023-03-03T07:43:40.016Z,2.20
2023-03-03T07:46:31.919Z,2.20
2023-03-03T07:49:01.400Z,1.80
2023-03-03T07:51:31.931Z,1.90
2023-03-03T07:54:25.888Z,2.50
2023-03-03T07:56:58.109Z,3.10
2023-03-03T07:59:27.621Z,2.20
2023-03-03T08:01:58.595Z,3.10
2023-03-03T08:04:33.749Z,3.10
2023-03-03T08:07:03.639Z,3.30
2023-03-03T08:09:38.586Z,2.50
2023-03-03T08:12:42.901Z,2.40
2023-03-03T08:15:23.896Z,2.40
2023-03-03T08:17:53.418Z,2.40
2023-03-03T08:20:47.369Z,2.40
2023-03-03T08:23:17.574Z,2.20
2023-03-03T08:25:47.828Z,2.30
2023-03-03T08:28:17.971Z,2.50
2023-03-03T08:30:46.991Z,2.50
2023-03-03T08:33:15.885Z,2.40
2023-03-03T08:35:45.000Z,2.50
2023-03-03T08:38:14.725Z,2.50
2023-03-03T08:40:43.160Z,2.60
2023-03-03T08:43:14.509Z,2.70
2023-03-03T08:45:45.233Z,2.70
2023-03-03T08:48:13.578Z,2.60
2023-03-03T08:50:42.500Z,2.50
2023-03-03T08:53:11.845Z,2.80
2023-03-03T08:55:40.029Z,2.60
2023-03-03T08:58:08.230Z,2.60
2023-03-03T09:00:36.902Z,2.70
2023-03-03T09:03:08.000Z,2.80
2023-03-03T09:05:38.006Z,2.70
2023-03-03T09:08:07.555Z,2.90
2023-03-03T09:10:35.881Z,2.90
2023-03-03T09:13:09.490Z,2.90
2023-03-03T09:15:40.056Z,3.00
2023-03-03T09:18:17.666Z,3.20
2023-03-03T09:20:47.673Z,3.00
2023-03-03T09:23:34.002Z,3.10
2023-03-03T09:26:28.227Z,3.30
2023-03-03T09:28:59.545Z,3.30
2023-03-03T09:31:33.519Z,3.40
2023-03-03T09:34:04.713Z,3.50
2023-03-03T09:36:38.609Z,3.40
2023-03-03T09:39:18.851Z,3.90
2023-03-03T09:42:27.825Z,3.90
2023-03-03T09:45:29.607Z,3.60
2023-03-03T09:48:20.760Z,3.80
2023-03-03T09:51:03.457Z,3.90
2023-03-03T09:53:47.302Z,4.00
2023-03-03T09:56:22.389Z,3.80
2023-03-03T09:59:14.146Z,3.90
2023-03-03T10:01:57.236Z,3.90
2023-03-03T10:04:42.120Z,3.80
2023-03-03T10:07:26.929Z,4.10
2023-03-03T10:10:13.081Z,3.90
2023-03-03T10:12:50.570Z,4.00
2023-03-03T10:15:33.708Z,4.00
2023-03-03T10:18:16.978Z,4.30
2023-03-03T10:20:54.298Z,4.30
2023-03-03T10:23:37.282Z,4.90
2023-03-03T10:26:17.762Z,4.50
2023-03-03T10:29:22.098Z,4.10
2023-03-03T10:32:14.351Z,4.50
2023-03-03T10:34:56.017Z,4.30
2023-03-03T10:37:31.769Z,5.00
2023-03-03T10:40:23.552Z,4.60
2023-03-03T10:43:06.511Z,4.40
2023-03-03T10:45:52.398Z,4.30
2023-03-03T10:48:35.067Z,4.90
2023-03-03T10:51:18.008Z,5.60
2023-03-03T10:53:56.065Z,5.40
2023-03-03T10:56:51.784Z,5.10
2023-03-03T10:59:51.594Z,5.30
2023-03-03T11:02:25.176Z,4.70
2023-03-03T11:05:19.522Z,4.90
2023-03-03T11:07:53.834Z,5.20
2023-03-03T11:10:36.033Z,5.50
2023-03-03T11:13:13.928Z,5.00
2023-03-03T11:16:07.234Z,5.40
2023-03-03T11:18:47.163Z,5.30
2023-03-03T11:21:22.218Z,5.70
2023-03-03T11:24:27.294Z,5.50
2023-03-03T11:27:12.287Z,5.10
2023-03-03T11:29:56.032Z,5.20
2023-03-03T11:32:33.634Z,5.10
2023-03-03T11:35:20.784Z,5.40
2023-03-03T11:37:57.446Z,5.70
2023-03-03T11:40:28.646Z,5.40
2023-03-03T11:43:05.102Z,5.80
2023-03-03T11:45:41.674Z,6.00
2023-03-03T11:48:17.245Z,6.10
2023-03-03T11:50:56.311Z,6.10
2023-03-03T11:53:46.496Z,5.80
2023-03-03T11:56:24.500Z,6.30
2023-03-03T11:59:07.705Z,6.00
2023-03-03T12:01:42.901Z,6.10
2023-03-03T12:04:14.712Z,6.60
2023-03-03T12:06:58.678Z,6.80
2023-03-03T12:09:41.350Z,6.30
2023-03-03T12:12:15.708Z,6.20
2023-03-03T12:15:01.413Z,5.90
2023-03-03T12:17:44.967Z,6.20
2023-03-03T12:20:22.534Z,6.30
2023-03-03T12:23:06.790Z,6.50
2023-03-03T12:25:41.077Z,6.30
2023-03-03T12:28:15.433Z,6.10
2023-03-03T12:31:08.566Z,6.10
2023-03-03T12:33:51.550Z,6.20
2023-03-03T12:36:36.794Z,6.10
2023-03-03T12:39:09.099Z,6.20
2023-03-03T12:41:41.197Z,6.00
2023-03-03T12:44:19.259Z,5.80
2023-03-03T12:46:54.395Z,6.20
2023-03-03T12:49:26.499Z,5.70
2023-03-03T12:52:11.840Z,6.30
2023-03-03T12:55:00.463Z,6.20
2023-03-03T12:57:38.461Z,6.80
2023-03-03T13:00:25.499Z,6.40
2023-03-03T13:03:15.610Z,6.40
2023-03-03T13:05:55.458Z,6.60
2023-03-03T13:08:34.446Z,7.60
2023-03-03T13:11:19.790Z,7.40
2023-03-03T13:13:54.614Z,7.50
2023-03-03T13:16:40.401Z,8.30
2023-03-03T13:19:13.675Z,7.60
2023-03-03T13:21:49.364Z,9.20
2023-03-03T13:24:23.569Z,8.60
2023-03-03T13:26:56.375Z,8.30
2023-03-03T13:29:28.530Z,8.50
2023-03-03T13:31:58.127Z,9.10
2023-03-03T13:34:38.353Z,9.00
2023-03-03T13:37:15.603Z,10.50
2023-03-03T13:39:53.811Z,9.80
2023-03-03T13:42:28.229Z,10.60
2023-03-03T13:44:57.873Z,8.90
2023-03-03T13:47:32.414Z,11.10
2023-03-03T13:50:10.175Z,9.40
2023-03-03T13:52:48.116Z,10.40
2023-03-03T13:55:25.347Z,11.90
2023-03-03T13:58:01.408Z,10.60
2023-03-03T14:00:40.824Z,10.20
2023-03-03T14:03:20.535Z,9.60
2023-03-03T14:05:50.999Z,8.80
2023-03-03T14:08:29.451Z,10.70
2023-03-03T14:11:10.815Z,11.80
2023-03-03T14:13:45.427Z,11.30
2023-03-03T14:16:20.217Z,11.30
2023-03-03T14:18:56.328Z,11.30
2023-03-03T14:21:31.014Z,10.70
2023-03-03T14:24:07.921Z,10.30
2023-03-03T14:26:49.411Z,11.00
2023-03-03T14:29:23.023Z,10.70
2023-03-03T14:31:51.183Z,11.20
2023-03-03T14:34:38.151Z,11.50
2023-03-03T14:37:26.516Z,12.50
2023-03-03T14:40:17.015Z,10.90
2023-03-03T14:42:50.489Z,12.90
2023-03-03T14:45:30.799Z,12.80
2023-03-03T14:48:00.561Z,11.30
2023-03-03T14:50:35.063Z,11.90
2023-03-03T14:53:15.591Z,13.70
2023-03-03T14:55:47.718Z,13.40
2023-03-03T14:58:28.232Z,11.40
2023-03-03T15:01:23.153Z,11.40
2023-03-03T15:03:59.847Z,10.50
2023-03-03T15:06:36.244Z,10.20
2023-03-03T15:09:43.197Z,10.30
2023-03-03T15:12:24.441Z,10.20
2023-03-03T15:14:54.271Z,11.50
2023-03-03T15:17:28.887Z,12.70
2023-03-03T15:20:32.309Z,13.40
2023-03-03T15:23:12.981Z,13.50
2023-03-03T15:25:53.776Z,13.20
2023-03-03T15:28:32.810Z,12.50
2023-03-03T15:31:09.285Z,11.40
2023-03-03T15:33:44.584Z,10.30
2023-03-03T15:36:20.266Z,10.10
2023-03-03T15:39:00.694Z,10.20
2023-03-03T15:41:41.031Z,10.60
2023-03-03T15:44:19.281Z,10.70
2023-03-03T15:47:08.604Z,9.30
2023-03-03T15:50:00.633Z,10.20
2023-03-03T15:52:48.213Z,10.00
2023-03-03T15:55:39.232Z,9.80
2023-03-03T15:58:21.272Z,9.50
2023-03-03T16:01:03.146Z,8.90
2023-03-03T16:03:36.400Z,8.60
2023-03-03T16:06:09.919Z,9.10
2023-03-03T16:08:49.533Z,8.90
2023-03-03T16:11:25.656Z,8.80
2023-03-03T16:14:02.956Z,8.60
2023-03-03T16:16:42.136Z,8.50
2023-03-03T16:19:27.584Z,8.60
2023-03-03T16:22:08.909Z,8.30
2023-03-03T16:24:48.781Z,8.20
2023-03-03T16:27:21.739Z,8.10
2023-03-03T16:30:05.373Z,7.90
2023-03-03T16:32:41.608Z,7.80
2023-03-03T16:35:24.822Z,7.70
2023-03-03T16:37:59.056Z,7.80
2023-03-03T16:40:31.466Z,7.70
2023-03-03T16:43:12.127Z,7.70
2023-03-03T16:45:41.483Z,7.60
2023-03-03T16:48:32.235Z,7.50
2023-03-03T16:51:12.926Z,7.50
2023-03-03T16:54:02.436Z,7.40
2023-03-03T16:56:35.657Z,7.30
2023-03-03T16:59:18.792Z,7.20
2023-03-03T17:01:52.860Z,7.20
2023-03-03T17:04:38.066Z,7.00
2023-03-03T17:07:21.148Z,7.10
2023-03-03T17:10:17.378Z,6.80
2023-03-03T17:13:03.544Z,6.60
2023-03-03T17:15:43.410Z,6.50
2023-03-03T17:18:15.520Z,6.40
2023-03-03T17:20:49.479Z,6.20
2023-03-03T17:23:42.377Z,6.10
2023-03-03T17:26:24.792Z,6.00
2023-03-03T17:29:09.098Z,5.90
2023-03-03T17:31:45.610Z,5.80
2023-03-03T17:34:30.699Z,5.80
2023-03-03T17:37:12.693Z,5.60
2023-03-03T17:39:53.770Z,5.60
2023-03-03T17:42:29.519Z,5.50
2023-03-03T17:45:04.408Z,5.20
2023-03-03T17:47:47.040Z,5.20
2023-03-03T17:50:56.913Z,5.20
2023-03-03T17:53:40.436Z,5.00
2023-03-03T17:56:18.803Z,4.70
2023-03-03T17:59:06.206Z,4.70
2023-03-03T18:01:50.475Z,4.50
2023-03-03T18:04:35.047Z,4.40
2023-03-03T18:07:25.837Z,4.50
2023-03-03T18:10:25.511Z,4.50
2023-03-03T18:13:05.005Z,4.50
2023-03-03T18:16:10.777Z,4.40
2023-03-03T18:19:01.244Z,4.30
2023-03-03T18:21:35.245Z,4.20
2023-03-03T18:24:31.886Z,4.10
2023-03-03T18:27:32.470Z,3.90
2023-03-03T18:30:29.081Z,3.80
2023-03-03T18:33:14.619Z,3.70
2023-03-03T18:35:44.460Z,3.90
2023-03-03T18:38:39.190Z,3.90
2023-03-03T18:41:11.600Z,3.80
2023-03-03T18:43:55.534Z,3.40
2023-03-03T18:46:54.819Z,3.50
2023-03-03T18:49:52.547Z,3.50
2023-03-03T18:52:29.475Z,3.40
2023-03-03T18:55:24.050Z,3.30
2023-03-03T18:58:42.426Z,3.30
2023-03-03T19:01:37.212Z,3.10
2023-03-03T19:04:24.918Z,3.00
2023-03-03T19:07:14.096Z,2.90
2023-03-03T19:09:56.835Z,2.90
2023-03-03T19:12:50.923Z,2.90
2023-03-03T19:15:58.528Z,2.80
2023-03-03T19:18:28.650Z,2.70
2023-03-03T19:20:59.243Z,2.80
2023-03-03T19:23:47.374Z,2.70
2023-03-03T19:26:35.302Z,2.70
2023-03-03T19:29:13.916Z,2.70
2023-03-03T19:31:49.752Z,2.70
2023-03-03T19:34:28.659Z,2.60
2023-03-03T19:37:05.939Z,2.60
2023-03-03T19:39:54.055Z,2.60
2023-03-03T19:42:37.447Z,2.50
2023-03-03T19:45:16.650Z,2.50
2023-03-03T19:47:48.874Z,2.50
2023-03-03T19:50:34.481Z,2.40
2023-03-03T19:53:14.181Z,2.30
2023-03-03T19:55:53.493Z,2.30
2023-03-03T19:58:31.625Z,2.10
2023-03-03T20:01:08.424Z,2.20
2023-03-03T20:04:01.139Z,2.20
2023-03-03T20:06:44.820Z,2.10
2023-03-03T20:09:22.011Z,2.10
2023-03-03T20:12:09.444Z,2.10
2023-03-03T20:14:45.991Z,2.00
2023-03-03T20:17:36.272Z,1.90
2023-03-03T20:20:14.718Z,1.80
2023-03-03T20:22:52.340Z,1.70
2023-03-03T20:25:28.255Z,1.60
2023-03-03T20:28:04.270Z,1.60
2023-03-03T20:30:54.876Z,1.60
2023-03-03T20:33:46.444Z,1.50
2023-03-03T20:36:26.497Z,1.50
2023-03-03T20:39:05.559Z,1.50
2023-03-03T20:41:58.780Z,1.50
2023-03-03T20:44:38.346Z,1.50
2023-03-03T20:47:14.620Z,1.50
2023-03-03T20:50:08.383Z,1.40
2023-03-03T20:52:45.767Z,1.40
2023-03-03T20:55:26.088Z,1.30
2023-03-03T20:58:01.912Z,1.30
2023-03-03T21:00:38.220Z,1.30
2023-03-03T21:03:15.335Z,1.20
2023-03-03T21:05:57.865Z,1.20
2023-03-03T21:08:44.850Z,1.20
2023-03-03T21:11:16.857Z,1.10
2023-03-03T21:13:47.292Z,1.20
2023-03-03T21:16:31.897Z,1.20
2023-03-03T21:19:03.039Z,1.10
2023-03-03T21:21:33.117Z,1.10
2023-03-03T21:24:01.589Z,1.00
2023-03-03T21:26:51.893Z,1.00
2023-03-03T21:29:23.077Z,0.90
2023-03-03T21:31:53.055Z,1.00
2023-03-03T21:34:27.543Z,1.00
2023-03-03T21:36:59.539Z,1.00
2023-03-03T21:39:30.386Z,1.00
2023-03-03T21:42:02.939Z,0.90
2023-03-03T21:44:34.384Z,0.90
2023-03-03T21:47:03.226Z,0.90
2023-03-03T21:49:31.717Z,0.90
2023-03-03T21:52:00.157Z,0.90
2023-03-03T21:54:29.402Z,0.90
2023-03-03T21:56:57.554Z,0.80
2023-03-03T21:59:27.042Z,0.80
2023-03-03T22:01:55.146Z,0.70
2023-03-03T22:04:23.416Z,0.70
2023-03-03T22:06:52.648Z,0.70
2023-03-03T22:09:21.092Z,0.70
2023-03-03T22:11:49.502Z,0.60
2023-03-03T22:14:17.879Z,0.70
2023-03-03T22:16:47.331Z,0.60
2023-03-03T22:19:15.459Z,0.60
2023-03-03T22:21:43.542Z,0.60
2023-03-03T22:24:11.671Z,0.60
2023-03-03T22:26:39.816Z,0.50
2023-03-03T22:29:08.016Z,0.50
2023-03-03T22:31:36.148Z,0.50
2023-03-03T22:34:05.691Z,0.50
2023-03-03T22:36:33.929Z,0.50
2023-03-03T22:39:02.027Z,0.40
2023-03-03T22:41:30.136Z,0.30
2023-03-03T22:43:58.298Z,0.30
2023-03-03T22:46:26.781Z,0.30
2023-03-03T22:48:54.853Z,0.40
2023-03-03T22:51:26.060Z,0.30
2023-03-03T22:53:54.184Z,0.30
2023-03-03T22:56:22.209Z,0.20
2023-03-03T22:58:50.726Z,0.30
2023-03-03T23:01:18.779Z,0.30
2023-03-03T23:03:50.194Z,0.20
2023-03-03T23:06:18.273Z,0.20
2023-03-03T23:08:47.698Z,0.30
2023-03-03T23:11:15.743Z,0.30
2023-03-03T23:13:43.799Z,0.40
2023-03-03T23:16:11.883Z,0.30
2023-03-03T23:18:39.992Z,0.40
2023-03-03T23:21:08.049Z,0.30
2023-03-03T23:23:36.190Z,0.30
2023-03-03T23:26:05.994Z,0.20
2023-03-03T23:28:34.384Z,0.20
2023-03-03T23:31:02.521Z,0.20
2023-03-03T23:33:30.732Z,0.20
2023-03-03T23:35:58.798Z,0.20
2023-03-03T23:38:26.948Z,0.20
2023-03-03T23:40:55.016Z,0.10
2023-03-03T23:43:24.396Z,0.10
2023-03-03T23:45:52.719Z,0.10
2023-03-03T23:48:21.244Z,0.20
2023-03-03T23:50:51.047Z,0.20
2023-03-03T23:53:19.610Z,0.10
2023-03-03T23:55:47.756Z,0.10
2023-03-03T23:58:15.861Z,0.10
